sensor_id;sensor_type;location;lat;lon;timestamp;P1;durP1;ratioP1;P2;durP2;ratioP2
11090;SDS011;5599;52.210;21.046;2023-05-10T00:01:29;8.70;;;6.87;;
11090;SDS011;5599;52.210;21.046;2023-05-10T00:03:58;8.20;;;7.17;;
11090;SDS011;5599;52.210;21.046;2023-05-10T00:06:28;8.87;;;7.17;;
11090;SDS011;5599;52.210;21.046;2023-05-10T00:08:57;10.97;;;7.00;;
11090;SDS011;5599;52.210;21.046;2023-05-10T00:11:26;9.80;;;6.70;;
11090;SDS011;5599;52.210;21.046;2023-05-10T00:13:55;9.43;;;7.10;;
11090;SDS011;5599;52.210;21.046;2023-05-10T00:16:26;9.27;;;6.80;;
11090;SDS011;5599;52.210;21.046;2023-05-10T00:18:55;11.03;;;6.30;;
11090;SDS011;5599;52.210;21.046;2023-05-10T00:21:24;9.27;;;6.17;;
11090;SDS011;5599;52.210;21.046;2023-05-10T00:23:55;9.93;;;7.13;;
11090;SDS011;5599;52.210;21.046;2023-05-10T00:26:24;7.93;;;6.20;;
11090;SDS011;5599;52.210;21.046;2023-05-10T00:28:55;9.63;;;6.80;;
11090;SDS011;5599;52.210;21.046;2023-05-10T00:31:27;6.83;;;6.13;;
11090;SDS011;5599;52.210;21.046;2023-05-10T00:33:56;7.53;;;6.20;;
11090;SDS011;5599;52.210;21.046;2023-05-10T00:36:26;8.27;;;5.73;;
11090;SDS011;5599;52.210;21.046;2023-05-10T00:38:55;8.27;;;6.30;;
11090;SDS011;5599;52.210;21.046;2023-05-10T00:41:24;8.70;;;6.17;;
11090;SDS011;5599;52.210;21.046;2023-05-10T00:43:54;6.50;;;5.90;;
11090;SDS011;5599;52.210;21.046;2023-05-10T00:46:23;8.57;;;5.37;;
11090;SDS011;5599;52.210;21.046;2023-05-10T00:48:54;9.13;;;5.93;;
11090;SDS011;5599;52.210;21.046;2023-05-10T00:51:24;9.47;;;6.17;;
11090;SDS011;5599;52.210;21.046;2023-05-10T00:53:53;9.03;;;5.97;;
11090;SDS011;5599;52.210;21.046;2023-05-10T00:56:24;6.70;;;5.90;;
11090;SDS011;5599;52.210;21.046;2023-05-10T00:58:53;8.10;;;5.87;;
11090;SDS011;5599;52.210;21.046;2023-05-10T01:01:23;7.40;;;5.63;;
11090;SDS011;5599;52.210;21.046;2023-05-10T01:03:55;6.33;;;5.23;;
11090;SDS011;5599;52.210;21.046;2023-05-10T01:06:24;7.93;;;5.70;;
11090;SDS011;5599;52.210;21.046;2023-05-10T01:08:55;6.97;;;5.57;;
11090;SDS011;5599;52.210;21.046;2023-05-10T01:11:24;9.37;;;5.73;;
11090;SDS011;5599;52.210;21.046;2023-05-10T01:13:55;10.47;;;6.10;;
11090;SDS011;5599;52.210;21.046;2023-05-10T01:16:25;10.20;;;5.37;;
11090;SDS011;5599;52.210;21.046;2023-05-10T01:18:57;7.03;;;5.93;;
11090;SDS011;5599;52.210;21.046;2023-05-10T01:21:29;7.13;;;5.70;;
11090;SDS011;5599;52.210;21.046;2023-05-10T01:27:23;11.37;;;6.30;;
11090;SDS011;5599;52.210;21.046;2023-05-10T01:30:29;6.27;;;5.60;;
11090;SDS011;5599;52.210;21.046;2023-05-10T01:33:11;7.30;;;5.17;;
11090;SDS011;5599;52.210;21.046;2023-05-10T01:35:47;9.70;;;5.70;;
11090;SDS011;5599;52.210;21.046;2023-05-10T01:38:27;7.03;;;5.53;;
11090;SDS011;5599;52.210;21.046;2023-05-10T01:41:08;7.07;;;5.40;;
11090;SDS011;5599;52.210;21.046;2023-05-10T01:43:44;6.70;;;5.33;;
11090;SDS011;5599;52.210;21.046;2023-05-10T01:46:20;11.50;;;5.63;;
11090;SDS011;5599;52.210;21.046;2023-05-10T01:48:58;8.87;;;6.00;;
11090;SDS011;5599;52.210;21.046;2023-05-10T01:51:41;8.43;;;6.07;;
11090;SDS011;5599;52.210;21.046;2023-05-10T01:54:13;7.10;;;5.80;;
11090;SDS011;5599;52.210;21.046;2023-05-10T01:56:45;8.77;;;5.10;;
11090;SDS011;5599;52.210;21.046;2023-05-10T01:59:18;8.27;;;5.47;;
11090;SDS011;5599;52.210;21.046;2023-05-10T02:01:48;6.60;;;5.17;;
11090;SDS011;5599;52.210;21.046;2023-05-10T02:04:22;7.20;;;5.30;;
11090;SDS011;5599;52.210;21.046;2023-05-10T02:06:53;9.23;;;5.40;;
11090;SDS011;5599;52.210;21.046;2023-05-10T02:09:24;7.00;;;5.63;;
11090;SDS011;5599;52.210;21.046;2023-05-10T02:11:56;8.13;;;5.50;;
11090;SDS011;5599;52.210;21.046;2023-05-10T02:14:27;6.30;;;5.17;;
11090;SDS011;5599;52.210;21.046;2023-05-10T02:16:57;6.43;;;4.87;;
11090;SDS011;5599;52.210;21.046;2023-05-10T02:19:29;7.47;;;5.40;;
11090;SDS011;5599;52.210;21.046;2023-05-10T02:22:00;5.90;;;5.30;;
11090;SDS011;5599;52.210;21.046;2023-05-10T02:24:32;6.57;;;5.70;;
11090;SDS011;5599;52.210;21.046;2023-05-10T02:27:03;7.73;;;5.60;;
11090;SDS011;5599;52.210;21.046;2023-05-10T02:29:32;5.87;;;5.20;;
11090;SDS011;5599;52.210;21.046;2023-05-10T02:32:02;8.27;;;5.40;;
11090;SDS011;5599;52.210;21.046;2023-05-10T02:34:34;8.20;;;4.90;;
11090;SDS011;5599;52.210;21.046;2023-05-10T02:37:04;8.00;;;5.07;;
11090;SDS011;5599;52.210;21.046;2023-05-10T02:39:34;6.63;;;5.23;;
11090;SDS011;5599;52.210;21.046;2023-05-10T02:42:05;10.13;;;5.87;;
11090;SDS011;5599;52.210;21.046;2023-05-10T02:44:35;6.40;;;5.43;;
11090;SDS011;5599;52.210;21.046;2023-05-10T02:47:07;9.97;;;6.07;;
11090;SDS011;5599;52.210;21.046;2023-05-10T02:49:38;6.83;;;5.43;;
11090;SDS011;5599;52.210;21.046;2023-05-10T02:52:07;7.67;;;5.23;;
11090;SDS011;5599;52.210;21.046;2023-05-10T02:54:39;6.53;;;5.50;;
11090;SDS011;5599;52.210;21.046;2023-05-10T02:57:15;10.80;;;5.60;;
11090;SDS011;5599;52.210;21.046;2023-05-10T02:59:46;6.77;;;5.53;;
11090;SDS011;5599;52.210;21.046;2023-05-10T03:02:15;5.80;;;5.20;;
11090;SDS011;5599;52.210;21.046;2023-05-10T03:04:46;6.67;;;5.00;;
11090;SDS011;5599;52.210;21.046;2023-05-10T03:07:16;7.17;;;5.03;;
11090;SDS011;5599;52.210;21.046;2023-05-10T03:09:48;5.93;;;4.83;;
11090;SDS011;5599;52.210;21.046;2023-05-10T03:12:20;8.03;;;4.83;;
11090;SDS011;5599;52.210;21.046;2023-05-10T03:15:00;8.80;;;5.20;;
11090;SDS011;5599;52.210;21.046;2023-05-10T03:17:36;6.20;;;5.20;;
11090;SDS011;5599;52.210;21.046;2023-05-10T03:20:23;8.40;;;5.30;;
11090;SDS011;5599;52.210;21.046;2023-05-10T03:22:55;8.97;;;5.27;;
11090;SDS011;5599;52.210;21.046;2023-05-10T03:25:31;6.50;;;4.93;;
11090;SDS011;5599;52.210;21.046;2023-05-10T03:28:02;10.80;;;5.93;;
11090;SDS011;5599;52.210;21.046;2023-05-10T03:30:34;7.87;;;5.47;;
11090;SDS011;5599;52.210;21.046;2023-05-10T03:33:06;7.23;;;5.00;;
11090;SDS011;5599;52.210;21.046;2023-05-10T03:35:41;12.40;;;5.07;;
11090;SDS011;5599;52.210;21.046;2023-05-10T03:38:13;6.07;;;4.73;;
11090;SDS011;5599;52.210;21.046;2023-05-10T03:40:43;7.77;;;5.00;;
11090;SDS011;5599;52.210;21.046;2023-05-10T03:43:12;7.07;;;4.80;;
11090;SDS011;5599;52.210;21.046;2023-05-10T03:45:41;5.67;;;4.37;;
11090;SDS011;5599;52.210;21.046;2023-05-10T03:48:11;6.23;;;5.47;;
11090;SDS011;5599;52.210;21.046;2023-05-10T03:50:43;6.70;;;5.30;;
11090;SDS011;5599;52.210;21.046;2023-05-10T03:53:13;6.47;;;4.80;;
11090;SDS011;5599;52.210;21.046;2023-05-10T03:55:42;6.47;;;5.60;;
11090;SDS011;5599;52.210;21.046;2023-05-10T03:58:12;6.77;;;5.27;;
11090;SDS011;5599;52.210;21.046;2023-05-10T04:00:41;8.15;;;4.63;;
11090;SDS011;5599;52.210;21.046;2023-05-10T04:03:13;6.93;;;5.03;;
11090;SDS011;5599;52.210;21.046;2023-05-10T04:05:44;5.90;;;5.00;;
11090;SDS011;5599;52.210;21.046;2023-05-10T04:08:14;7.07;;;4.97;;
11090;SDS011;5599;52.210;21.046;2023-05-10T04:10:44;5.43;;;4.60;;
11090;SDS011;5599;52.210;21.046;2023-05-10T04:13:14;9.32;;;5.25;;
11090;SDS011;5599;52.210;21.046;2023-05-10T04:15:43;5.70;;;4.50;;
11090;SDS011;5599;52.210;21.046;2023-05-10T04:18:12;5.82;;;4.78;;
11090;SDS011;5599;52.210;21.046;2023-05-10T04:20:41;7.65;;;4.28;;
11090;SDS011;5599;52.210;21.046;2023-05-10T04:23:12;5.22;;;4.70;;
11090;SDS011;5599;52.210;21.046;2023-05-10T04:25:43;7.53;;;5.20;;
11090;SDS011;5599;52.210;21.046;2023-05-10T04:28:12;5.75;;;4.50;;
11090;SDS011;5599;52.210;21.046;2023-05-10T04:30:41;8.77;;;4.20;;
11090;SDS011;5599;52.210;21.046;2023-05-10T04:33:11;9.63;;;5.22;;
11090;SDS011;5599;52.210;21.046;2023-05-10T04:35:40;5.70;;;4.80;;
11090;SDS011;5599;52.210;21.046;2023-05-10T04:38:09;9.48;;;4.93;;
11090;SDS011;5599;52.210;21.046;2023-05-10T04:40:40;7.32;;;5.38;;
11090;SDS011;5599;52.210;21.046;2023-05-10T04:43:09;7.88;;;4.40;;
11090;SDS011;5599;52.210;21.046;2023-05-10T04:45:38;7.82;;;5.20;;
11090;SDS011;5599;52.210;21.046;2023-05-10T04:48:07;11.20;;;5.05;;
11090;SDS011;5599;52.210;21.046;2023-05-10T04:50:37;8.25;;;5.00;;
11090;SDS011;5599;52.210;21.046;2023-05-10T04:53:06;8.60;;;4.95;;
11090;SDS011;5599;52.210;21.046;2023-05-10T04:55:37;9.00;;;4.70;;
11090;SDS011;5599;52.210;21.046;2023-05-10T04:58:06;7.85;;;4.93;;
11090;SDS011;5599;52.210;21.046;2023-05-10T05:00:35;7.35;;;4.68;;
11090;SDS011;5599;52.210;21.046;2023-05-10T05:03:04;7.55;;;4.78;;
11090;SDS011;5599;52.210;21.046;2023-05-10T05:05:34;5.25;;;4.55;;
11090;SDS011;5599;52.210;21.046;2023-05-10T05:08:03;7.53;;;4.68;;
11090;SDS011;5599;52.210;21.046;2023-05-10T05:10:32;7.95;;;4.38;;
11090;SDS011;5599;52.210;21.046;2023-05-10T05:13:03;6.28;;;4.55;;
11090;SDS011;5599;52.210;21.046;2023-05-10T05:15:33;5.72;;;4.95;;
11090;SDS011;5599;52.210;21.046;2023-05-10T05:18:02;5.50;;;4.50;;
11090;SDS011;5599;52.210;21.046;2023-05-10T05:20:32;7.85;;;4.82;;
11090;SDS011;5599;52.210;21.046;2023-05-10T05:23:01;8.38;;;4.43;;
11090;SDS011;5599;52.210;21.046;2023-05-10T05:25:31;9.48;;;4.38;;
11090;SDS011;5599;52.210;21.046;2023-05-10T05:28:00;11.95;;;4.90;;
11090;SDS011;5599;52.210;21.046;2023-05-10T05:30:31;12.57;;;4.47;;
11090;SDS011;5599;52.210;21.046;2023-05-10T05:33:00;7.13;;;4.22;;
11090;SDS011;5599;52.210;21.046;2023-05-10T05:35:29;9.43;;;4.20;;
11090;SDS011;5599;52.210;21.046;2023-05-10T05:37:59;12.50;;;4.50;;
11090;SDS011;5599;52.210;21.046;2023-05-10T05:40:28;7.35;;;4.45;;
11090;SDS011;5599;52.210;21.046;2023-05-10T05:42:57;4.95;;;4.10;;
11090;SDS011;5599;52.210;21.046;2023-05-10T05:45:27;9.30;;;4.28;;
11090;SDS011;5599;52.210;21.046;2023-05-10T05:47:58;8.15;;;4.57;;
11090;SDS011;5599;52.210;21.046;2023-05-10T05:50:28;7.50;;;4.53;;
11090;SDS011;5599;52.210;21.046;2023-05-10T05:52:57;6.05;;;4.40;;
11090;SDS011;5599;52.210;21.046;2023-05-10T05:55:26;5.25;;;4.32;;
11090;SDS011;5599;52.210;21.046;2023-05-10T05:57:56;7.70;;;4.15;;
11090;SDS011;5599;52.210;21.046;2023-05-10T06:00:26;6.13;;;4.07;;
11090;SDS011;5599;52.210;21.046;2023-05-10T06:02:55;5.57;;;3.95;;
11090;SDS011;5599;52.210;21.046;2023-05-10T06:05:26;9.55;;;3.78;;
11090;SDS011;5599;52.210;21.046;2023-05-10T06:07:55;8.20;;;3.83;;
11090;SDS011;5599;52.210;21.046;2023-05-10T06:10:24;6.88;;;3.85;;
11090;SDS011;5599;52.210;21.046;2023-05-10T06:12:54;7.38;;;3.67;;
11090;SDS011;5599;52.210;21.046;2023-05-10T06:15:23;7.57;;;4.03;;
11090;SDS011;5599;52.210;21.046;2023-05-10T06:17:53;5.47;;;3.88;;
11090;SDS011;5599;52.210;21.046;2023-05-10T06:20:22;7.18;;;3.67;;
11090;SDS011;5599;52.210;21.046;2023-05-10T06:22:53;4.53;;;3.80;;
11090;SDS011;5599;52.210;21.046;2023-05-10T06:25:22;8.90;;;3.70;;
11090;SDS011;5599;52.210;21.046;2023-05-10T06:27:51;5.70;;;3.50;;
11090;SDS011;5599;52.210;21.046;2023-05-10T06:30:24;8.48;;;3.70;;
11090;SDS011;5599;52.210;21.046;2023-05-10T06:32:56;8.45;;;4.00;;
11090;SDS011;5599;52.210;21.046;2023-05-10T06:35:25;3.97;;;3.35;;
11090;SDS011;5599;52.210;21.046;2023-05-10T06:37:56;6.75;;;3.40;;
11090;SDS011;5599;52.210;21.046;2023-05-10T06:40:25;7.40;;;3.35;;
11090;SDS011;5599;52.210;21.046;2023-05-10T06:42:55;5.50;;;3.40;;
11090;SDS011;5599;52.210;21.046;2023-05-10T06:45:24;7.50;;;3.85;;
11090;SDS011;5599;52.210;21.046;2023-05-10T06:47:53;10.25;;;3.90;;
11090;SDS011;5599;52.210;21.046;2023-05-10T06:50:23;5.40;;;3.65;;
11090;SDS011;5599;52.210;21.046;2023-05-10T06:52:52;5.65;;;3.50;;
11090;SDS011;5599;52.210;21.046;2023-05-10T06:55:24;8.40;;;3.40;;
11090;SDS011;5599;52.210;21.046;2023-05-10T06:57:53;8.13;;;3.15;;
11090;SDS011;5599;52.210;21.046;2023-05-10T07:00:22;6.40;;;3.40;;
11090;SDS011;5599;52.210;21.046;2023-05-10T07:02:52;7.57;;;3.00;;
11090;SDS011;5599;52.210;21.046;2023-05-10T07:05:22;4.82;;;2.50;;
11090;SDS011;5599;52.210;21.046;2023-05-10T07:07:51;7.03;;;3.78;;
11090;SDS011;5599;52.210;21.046;2023-05-10T07:10:21;4.00;;;2.92;;
11090;SDS011;5599;52.210;21.046;2023-05-10T07:12:52;4.57;;;2.95;;
11090;SDS011;5599;52.210;21.046;2023-05-10T07:15:21;4.10;;;3.20;;
11090;SDS011;5599;52.210;21.046;2023-05-10T07:17:50;4.40;;;3.35;;
11090;SDS011;5599;52.210;21.046;2023-05-10T07:20:20;2.95;;;2.67;;
11090;SDS011;5599;52.210;21.046;2023-05-10T07:22:50;4.43;;;2.72;;
11090;SDS011;5599;52.210;21.046;2023-05-10T07:25:19;5.10;;;2.90;;
11090;SDS011;5599;52.210;21.046;2023-05-10T07:27:48;11.98;;;3.20;;
11090;SDS011;5599;52.210;21.046;2023-05-10T07:30:19;5.68;;;2.70;;
11090;SDS011;5599;52.210;21.046;2023-05-10T07:32:49;4.13;;;2.65;;
11090;SDS011;5599;52.210;21.046;2023-05-10T07:35:18;6.57;;;2.90;;
11090;SDS011;5599;52.210;21.046;2023-05-10T07:37:48;5.05;;;2.90;;
11090;SDS011;5599;52.210;21.046;2023-05-10T07:40:17;3.92;;;2.88;;
11090;SDS011;5599;52.210;21.046;2023-05-10T07:42:47;7.38;;;2.88;;
11090;SDS011;5599;52.210;21.046;2023-05-10T07:45:17;6.22;;;2.45;;
11090;SDS011;5599;52.210;21.046;2023-05-10T07:47:48;5.65;;;2.58;;
11090;SDS011;5599;52.210;21.046;2023-05-10T07:50:18;6.40;;;2.72;;
11090;SDS011;5599;52.210;21.046;2023-05-10T07:52:48;5.97;;;2.63;;
11090;SDS011;5599;52.210;21.046;2023-05-10T07:55:18;5.50;;;2.90;;
11090;SDS011;5599;52.210;21.046;2023-05-10T07:57:48;3.58;;;2.40;;
11090;SDS011;5599;52.210;21.046;2023-05-10T08:00:17;4.47;;;2.58;;
11090;SDS011;5599;52.210;21.046;2023-05-10T08:02:49;7.05;;;2.45;;
11090;SDS011;5599;52.210;21.046;2023-05-10T08:05:19;5.32;;;2.75;;
11090;SDS011;5599;52.210;21.046;2023-05-10T08:07:48;2.45;;;2.25;;
11090;SDS011;5599;52.210;21.046;2023-05-10T08:10:17;6.13;;;2.42;;
11090;SDS011;5599;52.210;21.046;2023-05-10T08:12:47;5.95;;;2.63;;
11090;SDS011;5599;52.210;21.046;2023-05-10T08:15:16;3.30;;;2.30;;
11090;SDS011;5599;52.210;21.046;2023-05-10T08:17:47;3.60;;;2.40;;
11090;SDS011;5599;52.210;21.046;2023-05-10T08:20:16;4.93;;;2.83;;
11090;SDS011;5599;52.210;21.046;2023-05-10T08:22:46;6.00;;;2.47;;
11090;SDS011;5599;52.210;21.046;2023-05-10T08:25:17;9.68;;;2.80;;
11090;SDS011;5599;52.210;21.046;2023-05-10T08:27:47;5.13;;;2.40;;
11090;SDS011;5599;52.210;21.046;2023-05-10T08:30:16;5.82;;;2.60;;
11090;SDS011;5599;52.210;21.046;2023-05-10T08:32:46;5.30;;;2.40;;
11090;SDS011;5599;52.210;21.046;2023-05-10T08:35:16;5.75;;;2.20;;
11090;SDS011;5599;52.210;21.046;2023-05-10T08:37:45;6.00;;;2.65;;
11090;SDS011;5599;52.210;21.046;2023-05-10T08:40:14;5.82;;;2.50;;
11090;SDS011;5599;52.210;21.046;2023-05-10T08:42:47;4.13;;;2.50;;
11090;SDS011;5599;52.210;21.046;2023-05-10T08:45:25;9.85;;;2.40;;
11090;SDS011;5599;52.210;21.046;2023-05-10T08:48:01;4.32;;;2.50;;
11090;SDS011;5599;52.210;21.046;2023-05-10T08:50:31;4.03;;;2.50;;
11090;SDS011;5599;52.210;21.046;2023-05-10T08:53:04;3.72;;;2.67;;
11090;SDS011;5599;52.210;21.046;2023-05-10T08:55:35;3.60;;;2.45;;
11090;SDS011;5599;52.210;21.046;2023-05-10T08:58:06;3.72;;;2.50;;
11090;SDS011;5599;52.210;21.046;2023-05-10T09:00:36;5.15;;;3.13;;
11090;SDS011;5599;52.210;21.046;2023-05-10T09:03:07;6.15;;;2.47;;
11090;SDS011;5599;52.210;21.046;2023-05-10T09:05:37;6.07;;;2.40;;
11090;SDS011;5599;52.210;21.046;2023-05-10T09:08:06;6.18;;;2.38;;
11090;SDS011;5599;52.210;21.046;2023-05-10T09:10:37;5.22;;;2.42;;
11090;SDS011;5599;52.210;21.046;2023-05-10T09:13:09;3.55;;;2.30;;
11090;SDS011;5599;52.210;21.046;2023-05-10T09:15:39;2.90;;;2.15;;
11090;SDS011;5599;52.210;21.046;2023-05-10T09:18:10;11.10;;;2.97;;
11090;SDS011;5599;52.210;21.046;2023-05-10T09:20:40;6.03;;;2.20;;
11090;SDS011;5599;52.210;21.046;2023-05-10T09:23:09;7.45;;;2.42;;
11090;SDS011;5599;52.210;21.046;2023-05-10T09:25:39;3.45;;;2.47;;
11090;SDS011;5599;52.210;21.046;2023-05-10T09:28:10;3.17;;;2.35;;
11090;SDS011;5599;52.210;21.046;2023-05-10T09:30:40;9.00;;;3.28;;
11090;SDS011;5599;52.210;21.046;2023-05-10T09:33:11;4.88;;;2.70;;
11090;SDS011;5599;52.210;21.046;2023-05-10T09:35:40;4.25;;;2.45;;
11090;SDS011;5599;52.210;21.046;2023-05-10T09:38:10;3.13;;;2.40;;
11090;SDS011;5599;52.210;21.046;2023-05-10T09:40:39;7.75;;;2.33;;
11090;SDS011;5599;52.210;21.046;2023-05-10T09:43:08;7.70;;;2.45;;
11090;SDS011;5599;52.210;21.046;2023-05-10T09:45:38;6.78;;;2.90;;
11090;SDS011;5599;52.210;21.046;2023-05-10T09:48:10;4.00;;;2.40;;
11090;SDS011;5599;52.210;21.046;2023-05-10T09:50:40;3.20;;;2.15;;
11090;SDS011;5599;52.210;21.046;2023-05-10T09:53:10;5.15;;;2.67;;
11090;SDS011;5599;52.210;21.046;2023-05-10T09:55:44;5.05;;;2.72;;
11090;SDS011;5599;52.210;21.046;2023-05-10T09:58:16;3.92;;;2.58;;
11090;SDS011;5599;52.210;21.046;2023-05-10T10:00:45;4.68;;;2.53;;
11090;SDS011;5599;52.210;21.046;2023-05-10T10:03:20;5.25;;;2.50;;
11090;SDS011;5599;52.210;21.046;2023-05-10T10:05:51;2.70;;;2.42;;
11090;SDS011;5599;52.210;21.046;2023-05-10T10:08:23;4.82;;;2.65;;
11090;SDS011;5599;52.210;21.046;2023-05-10T10:10:52;5.40;;;2.95;;
11090;SDS011;5599;52.210;21.046;2023-05-10T10:13:22;3.50;;;2.10;;
11090;SDS011;5599;52.210;21.046;2023-05-10T10:15:52;6.78;;;2.70;;
11090;SDS011;5599;52.210;21.046;2023-05-10T10:18:24;4.22;;;2.40;;
11090;SDS011;5599;52.210;21.046;2023-05-10T10:20:55;4.70;;;2.40;;
11090;SDS011;5599;52.210;21.046;2023-05-10T10:23:25;8.95;;;2.88;;
11090;SDS011;5599;52.210;21.046;2023-05-10T10:25:55;8.30;;;2.28;;
11090;SDS011;5599;52.210;21.046;2023-05-10T10:28:26;6.78;;;2.80;;
11090;SDS011;5599;52.210;21.046;2023-05-10T10:31:13;8.85;;;2.58;;
11090;SDS011;5599;52.210;21.046;2023-05-10T10:33:58;3.63;;;2.22;;
11090;SDS011;5599;52.210;21.046;2023-05-10T10:36:30;2.88;;;2.58;;
11090;SDS011;5599;52.210;21.046;2023-05-10T10:39:01;5.75;;;2.45;;
11090;SDS011;5599;52.210;21.046;2023-05-10T10:41:31;9.77;;;2.50;;
11090;SDS011;5599;52.210;21.046;2023-05-10T10:47:05;5.85;;;2.53;;
11090;SDS011;5599;52.210;21.046;2023-05-10T10:49:42;3.80;;;2.60;;
11090;SDS011;5599;52.210;21.046;2023-05-10T10:52:12;3.72;;;2.13;;
11090;SDS011;5599;52.210;21.046;2023-05-10T10:54:59;5.57;;;2.60;;
11090;SDS011;5599;52.210;21.046;2023-05-10T10:57:44;5.25;;;2.60;;
11090;SDS011;5599;52.210;21.046;2023-05-10T11:00:22;8.35;;;2.35;;
11090;SDS011;5599;52.210;21.046;2023-05-10T11:02:55;3.25;;;2.40;;
11090;SDS011;5599;52.210;21.046;2023-05-10T11:08:16;6.45;;;2.33;;
11090;SDS011;5599;52.210;21.046;2023-05-10T11:10:50;3.25;;;2.40;;
11090;SDS011;5599;52.210;21.046;2023-05-10T11:13:31;3.28;;;2.17;;
11090;SDS011;5599;52.210;21.046;2023-05-10T11:18:58;5.85;;;2.83;;
11090;SDS011;5599;52.210;21.046;2023-05-10T11:21:32;4.25;;;2.38;;
11090;SDS011;5599;52.210;21.046;2023-05-10T11:24:09;5.85;;;2.28;;
11090;SDS011;5599;52.210;21.046;2023-05-10T11:26:43;9.45;;;2.40;;
11090;SDS011;5599;52.210;21.046;2023-05-10T11:29:12;5.03;;;2.38;;
11090;SDS011;5599;52.210;21.046;2023-05-10T11:31:42;5.97;;;2.60;;
11090;SDS011;5599;52.210;21.046;2023-05-10T11:34:13;5.10;;;2.60;;
11090;SDS011;5599;52.210;21.046;2023-05-10T11:36:54;4.80;;;2.45;;
11090;SDS011;5599;52.210;21.046;2023-05-10T11:39:25;4.65;;;2.67;;
11090;SDS011;5599;52.210;21.046;2023-05-10T11:41:56;7.63;;;2.42;;
11090;SDS011;5599;52.210;21.046;2023-05-10T11:44:28;3.22;;;2.38;;
11090;SDS011;5599;52.210;21.046;2023-05-10T11:46:58;4.35;;;2.58;;
11090;SDS011;5599;52.210;21.046;2023-05-10T11:49:28;6.40;;;2.47;;
11090;SDS011;5599;52.210;21.046;2023-05-10T11:52:05;9.70;;;2.83;;
11090;SDS011;5599;52.210;21.046;2023-05-10T11:54:35;3.60;;;2.40;;
11090;SDS011;5599;52.210;21.046;2023-05-10T11:57:05;4.53;;;2.53;;
11090;SDS011;5599;52.210;21.046;2023-05-10T11:59:34;5.97;;;2.42;;
11090;SDS011;5599;52.210;21.046;2023-05-10T12:02:07;6.07;;;2.63;;
11090;SDS011;5599;52.210;21.046;2023-05-10T12:04:37;3.33;;;2.30;;
11090;SDS011;5599;52.210;21.046;2023-05-10T12:07:08;5.57;;;2.50;;
11090;SDS011;5599;52.210;21.046;2023-05-10T12:09:41;6.65;;;2.40;;
11090;SDS011;5599;52.210;21.046;2023-05-10T12:12:15;6.53;;;2.55;;
11090;SDS011;5599;52.210;21.046;2023-05-10T12:14:47;4.15;;;2.22;;
11090;SDS011;5599;52.210;21.046;2023-05-10T12:17:18;3.85;;;2.22;;
11090;SDS011;5599;52.210;21.046;2023-05-10T12:19:48;5.70;;;2.35;;
11090;SDS011;5599;52.210;21.046;2023-05-10T12:22:21;4.07;;;2.38;;
11090;SDS011;5599;52.210;21.046;2023-05-10T12:24:50;4.00;;;2.83;;
11090;SDS011;5599;52.210;21.046;2023-05-10T12:27:20;4.70;;;2.50;;
11090;SDS011;5599;52.210;21.046;2023-05-10T12:30:07;3.25;;;2.50;;
11090;SDS011;5599;52.210;21.046;2023-05-10T12:32:37;5.45;;;2.40;;
11090;SDS011;5599;52.210;21.046;2023-05-10T12:35:08;5.55;;;2.65;;
11090;SDS011;5599;52.210;21.046;2023-05-10T12:37:39;4.90;;;2.20;;
11090;SDS011;5599;52.210;21.046;2023-05-10T12:40:09;3.47;;;2.03;;
11090;SDS011;5599;52.210;21.046;2023-05-10T12:42:39;6.43;;;2.30;;
11090;SDS011;5599;52.210;21.046;2023-05-10T12:45:09;5.13;;;2.20;;
11090;SDS011;5599;52.210;21.046;2023-05-10T12:47:38;7.13;;;2.50;;
11090;SDS011;5599;52.210;21.046;2023-05-10T12:50:10;5.82;;;2.38;;
11090;SDS011;5599;52.210;21.046;2023-05-10T12:52:40;6.53;;;2.50;;
11090;SDS011;5599;52.210;21.046;2023-05-10T12:55:09;5.50;;;2.28;;
11090;SDS011;5599;52.210;21.046;2023-05-10T12:57:39;2.72;;;2.25;;
11090;SDS011;5599;52.210;21.046;2023-05-10T13:00:08;2.83;;;2.20;;
11090;SDS011;5599;52.210;21.046;2023-05-10T13:02:38;3.58;;;2.47;;
11090;SDS011;5599;52.210;21.046;2023-05-10T13:05:08;2.97;;;2.15;;
11090;SDS011;5599;52.210;21.046;2023-05-10T13:07:38;3.78;;;2.60;;
11090;SDS011;5599;52.210;21.046;2023-05-10T13:10:10;2.72;;;2.10;;
11090;SDS011;5599;52.210;21.046;2023-05-10T13:12:40;4.80;;;2.72;;
11090;SDS011;5599;52.210;21.046;2023-05-10T13:15:09;5.60;;;2.70;;
11090;SDS011;5599;52.210;21.046;2023-05-10T13:17:39;7.20;;;2.33;;
11090;SDS011;5599;52.210;21.046;2023-05-10T13:20:10;2.97;;;2.30;;
11090;SDS011;5599;52.210;21.046;2023-05-10T13:22:41;8.73;;;2.38;;
11090;SDS011;5599;52.210;21.046;2023-05-10T13:25:11;2.95;;;2.20;;
11090;SDS011;5599;52.210;21.046;2023-05-10T13:27:41;6.85;;;2.22;;
11090;SDS011;5599;52.210;21.046;2023-05-10T13:30:10;4.63;;;2.33;;
11090;SDS011;5599;52.210;21.046;2023-05-10T13:32:40;7.55;;;2.60;;
11090;SDS011;5599;52.210;21.046;2023-05-10T13:35:09;4.00;;;2.60;;
11090;SDS011;5599;52.210;21.046;2023-05-10T13:37:38;3.35;;;2.33;;
11090;SDS011;5599;52.210;21.046;2023-05-10T13:40:09;3.70;;;2.47;;
11090;SDS011;5599;52.210;21.046;2023-05-10T13:42:39;8.40;;;2.40;;
11090;SDS011;5599;52.210;21.046;2023-05-10T13:45:08;4.88;;;2.53;;
11090;SDS011;5599;52.210;21.046;2023-05-10T13:47:39;3.65;;;2.58;;
11090;SDS011;5599;52.210;21.046;2023-05-10T13:50:08;5.55;;;2.20;;
11090;SDS011;5599;52.210;21.046;2023-05-10T13:52:38;3.67;;;2.20;;
11090;SDS011;5599;52.210;21.046;2023-05-10T13:55:08;5.47;;;2.47;;
11090;SDS011;5599;52.210;21.046;2023-05-10T13:57:39;3.80;;;2.17;;
11090;SDS011;5599;52.210;21.046;2023-05-10T14:00:08;4.35;;;2.30;;
11090;SDS011;5599;52.210;21.046;2023-05-10T14:02:38;3.08;;;2.08;;
11090;SDS011;5599;52.210;21.046;2023-05-10T14:05:08;3.10;;;1.85;;
11090;SDS011;5599;52.210;21.046;2023-05-10T14:07:38;4.82;;;2.63;;
11090;SDS011;5599;52.210;21.046;2023-05-10T14:10:10;2.67;;;2.13;;
11090;SDS011;5599;52.210;21.046;2023-05-10T14:12:39;5.07;;;2.30;;
11090;SDS011;5599;52.210;21.046;2023-05-10T14:15:09;4.85;;;2.22;;
11090;SDS011;5599;52.210;21.046;2023-05-10T14:17:39;5.25;;;2.72;;
11090;SDS011;5599;52.210;21.046;2023-05-10T14:20:08;2.85;;;1.98;;
11090;SDS011;5599;52.210;21.046;2023-05-10T14:22:38;3.47;;;2.30;;
11090;SDS011;5599;52.210;21.046;2023-05-10T14:25:10;2.65;;;2.17;;
11090;SDS011;5599;52.210;21.046;2023-05-10T14:27:39;4.40;;;2.78;;
11090;SDS011;5599;52.210;21.046;2023-05-10T14:30:09;3.08;;;2.20;;
11090;SDS011;5599;52.210;21.046;2023-05-10T14:32:38;2.83;;;2.28;;
11090;SDS011;5599;52.210;21.046;2023-05-10T14:35:07;6.97;;;2.45;;
11090;SDS011;5599;52.210;21.046;2023-05-10T14:37:41;5.18;;;2.20;;
11090;SDS011;5599;52.210;21.046;2023-05-10T14:40:13;4.47;;;2.30;;
11090;SDS011;5599;52.210;21.046;2023-05-10T14:42:42;3.08;;;2.10;;
11090;SDS011;5599;52.210;21.046;2023-05-10T14:45:11;5.00;;;2.15;;
11090;SDS011;5599;52.210;21.046;2023-05-10T14:47:41;5.30;;;2.10;;
11090;SDS011;5599;52.210;21.046;2023-05-10T14:50:10;3.45;;;2.13;;
11090;SDS011;5599;52.210;21.046;2023-05-10T14:53:00;7.22;;;2.50;;
11090;SDS011;5599;52.210;21.046;2023-05-10T14:55:30;2.88;;;2.33;;
11090;SDS011;5599;52.210;21.046;2023-05-10T14:57:59;7.05;;;2.50;;
11090;SDS011;5599;52.210;21.046;2023-05-10T15:00:29;4.93;;;2.40;;
11090;SDS011;5599;52.210;21.046;2023-05-10T15:02:59;5.90;;;2.42;;
11090;SDS011;5599;52.210;21.046;2023-05-10T15:05:29;2.75;;;2.28;;
11090;SDS011;5599;52.210;21.046;2023-05-10T15:07:58;3.90;;;2.55;;
11090;SDS011;5599;52.210;21.046;2023-05-10T15:10:27;5.65;;;2.47;;
11090;SDS011;5599;52.210;21.046;2023-05-10T15:13:01;5.35;;;2.45;;
11090;SDS011;5599;52.210;21.046;2023-05-10T15:15:32;6.15;;;2.90;;
11090;SDS011;5599;52.210;21.046;2023-05-10T15:18:01;2.35;;;1.90;;
11090;SDS011;5599;52.210;21.046;2023-05-10T15:20:30;3.25;;;2.78;;
11090;SDS011;5599;52.210;21.046;2023-05-10T15:22:59;4.30;;;2.08;;